sensor_id;sensor_type;location;lat;lon;timestamp;temperature;humidity
19279;DHT22;9773;47.062;15.446;2024-02-23T00:00:42;9.50;99.90
19279;DHT22;9773;47.062;15.446;2024-02-23T00:03:07;9.50;99.90
19279;DHT22;9773;47.062;15.446;2024-02-23T00:05:34;9.50;99.90
19279;DHT22;9773;47.062;15.446;2024-02-23T00:07:59;9.50;99.90
19279;DHT22;9773;47.062;15.446;2024-02-23T00:10:25;9.50;99.90
19279;DHT22;9773;47.062;15.446;2024-02-23T00:12:51;9.50;99.90
19279;DHT22;9773;47.062;15.446;2024-02-23T00:15:17;9.60;99.90
19279;DHT22;9773;47.062;15.446;2024-02-23T00:17:43;9.50;99.90
19279;DHT22;9773;47.062;15.446;2024-02-23T00:20:10;9.50;99.90
19279;DHT22;9773;47.062;15.446;2024-02-23T00:22:37;9.60;99.90
19279;DHT22;9773;47.062;15.446;2024-02-23T00:25:03;9.50;99.90
19279;DHT22;9773;47.062;15.446;2024-02-23T00:27:29;9.50;99.90
19279;DHT22;9773;47.062;15.446;2024-02-23T00:29:55;9.50;99.90
19279;DHT22;9773;47.062;15.446;2024-02-23T00:32:20;9.50;99.90
19279;DHT22;9773;47.062;15.446;2024-02-23T00:34:46;9.50;99.90
19279;DHT22;9773;47.062;15.446;2024-02-23T00:37:12;9.50;99.90
19279;DHT22;9773;47.062;15.446;2024-02-23T00:39:38;10.70;99.90
19279;DHT22;9773;47.062;15.446;2024-02-23T00:42:04;9.50;99.90
19279;DHT22;9773;47.062;15.446;2024-02-23T00:44:30;9.40;99.90
19279;DHT22;9773;47.062;15.446;2024-02-23T00:46:56;9.40;99.90
19279;DHT22;9773;47.062;15.446;2024-02-23T00:49:27;9.40;99.90
19279;DHT22;9773;47.062;15.446;2024-02-23T00:51:52;9.40;99.90
19279;DHT22;9773;47.062;15.446;2024-02-23T00:54:18;9.40;99.90
19279;DHT22;9773;47.062;15.446;2024-02-23T00:56:44;9.40;99.90
19279;DHT22;9773;47.062;15.446;2024-02-23T00:59:10;9.40;99.90
19279;DHT22;9773;47.062;15.446;2024-02-23T01:01:36;9.40;99.90
19279;DHT22;9773;47.062;15.446;2024-02-23T01:04:02;9.40;99.90
19279;DHT22;9773;47.062;15.446;2024-02-23T01:06:28;9.40;99.90
19279;DHT22;9773;47.062;15.446;2024-02-23T01:08:54;9.40;99.90
19279;DHT22;9773;47.062;15.446;2024-02-23T01:11:19;9.40;99.90
19279;DHT22;9773;47.062;15.446;2024-02-23T01:13:45;9.40;99.90
19279;DHT22;9773;47.062;15.446;2024-02-23T01:16:11;9.40;99.90
19279;DHT22;9773;47.062;15.446;2024-02-23T01:18:37;9.40;99.90
19279;DHT22;9773;47.062;15.446;2024-02-23T01:21:03;9.40;99.90
19279;DHT22;9773;47.062;15.446;2024-02-23T01:23:28;9.40;99.90
19279;DHT22;9773;47.062;15.446;2024-02-23T01:25:54;9.40;99.90
19279;DHT22;9773;47.062;15.446;2024-02-23T01:28:20;9.50;99.90
19279;DHT22;9773;47.062;15.446;2024-02-23T01:30:46;9.40;99.90
19279;DHT22;9773;47.062;15.446;2024-02-23T01:33:12;9.40;99.90
19279;DHT22;9773;47.062;15.446;2024-02-23T01:35:37;9.40;99.90
19279;DHT22;9773;47.062;15.446;2024-02-23T01:38:03;9.40;99.90
19279;DHT22;9773;47.062;15.446;2024-02-23T01:40:29;9.30;99.90
19279;DHT22;9773;47.062;15.446;2024-02-23T01:43:04;9.30;99.90
19279;DHT22;9773;47.062;15.446;2024-02-23T01:45:31;9.30;99.90
19279;DHT22;9773;47.062;15.446;2024-02-23T01:47:58;9.30;99.90
19279;DHT22;9773;47.062;15.446;2024-02-23T01:50:25;9.30;99.90
19279;DHT22;9773;47.062;15.446;2024-02-23T01:52:52;9.20;99.90
19279;DHT22;9773;47.062;15.446;2024-02-23T01:55:20;9.20;99.90
19279;DHT22;9773;47.062;15.446;2024-02-23T01:57:47;9.20;99.90
19279;DHT22;9773;47.062;15.446;2024-02-23T02:00:16;9.20;99.90
19279;DHT22;9773;47.062;15.446;2024-02-23T02:02:43;9.20;99.90
19279;DHT22;9773;47.062;15.446;2024-02-23T02:05:10;9.20;99.90
19279;DHT22;9773;47.062;15.446;2024-02-23T02:07:36;9.20;99.90
19279;DHT22;9773;47.062;15.446;2024-02-23T02:10:04;9.10;99.90
19279;DHT22;9773;47.062;15.446;2024-02-23T02:12:32;9.00;99.90
19279;DHT22;9773;47.062;15.446;2024-02-23T02:14:58;9.10;99.90
19279;DHT22;9773;47.062;15.446;2024-02-23T02:17:30;9.00;99.90
19279;DHT22;9773;47.062;15.446;2024-02-23T02:19:58;9.00;99.90
19279;DHT22;9773;47.062;15.446;2024-02-23T02:22:24;9.00;99.90
19279;DHT22;9773;47.062;15.446;2024-02-23T02:24:50;9.00;99.90
19279;DHT22;9773;47.062;15.446;2024-02-23T02:27:15;9.00;99.90
19279;DHT22;9773;47.062;15.446;2024-02-23T02:29:41;9.00;99.90
19279;DHT22;9773;47.062;15.446;2024-02-23T02:32:07;9.00;99.90
19279;DHT22;9773;47.062;15.446;2024-02-23T02:34:33;9.00;99.90
19279;DHT22;9773;47.062;15.446;2024-02-23T02:37:00;9.00;99.90
19279;DHT22;9773;47.062;15.446;2024-02-23T02:39:26;8.90;99.90
19279;DHT22;9773;47.062;15.446;2024-02-23T02:41:52;8.90;99.90
19279;DHT22;9773;47.062;15.446;2024-02-23T02:44:18;8.90;99.90
19279;DHT22;9773;47.062;15.446;2024-02-23T02:46:44;8.90;99.90
19279;DHT22;9773;47.062;15.446;2024-02-23T02:49:11;8.90;99.90
19279;DHT22;9773;47.062;15.446;2024-02-23T02:51:37;8.90;99.90
19279;DHT22;9773;47.062;15.446;2024-02-23T02:54:03;8.90;99.90
19279;DHT22;9773;47.062;15.446;2024-02-23T02:56:28;8.80;99.90
19279;DHT22;9773;47.062;15.446;2024-02-23T02:58:54;8.80;99.90
19279;DHT22;9773;47.062;15.446;2024-02-23T03:01:27;8.80;99.90
19279;DHT22;9773;47.062;15.446;2024-02-23T03:03:53;8.80;99.90
19279;DHT22;9773;47.062;15.446;2024-02-23T03:06:19;8.70;99.90
19279;DHT22;9773;47.062;15.446;2024-02-23T03:08:44;8.70;99.90
19279;DHT22;9773;47.062;15.446;2024-02-23T03:11:10;8.70;99.90
19279;DHT22;9773;47.062;15.446;2024-02-23T03:13:37;8.80;99.90
19279;DHT22;9773;47.062;15.446;2024-02-23T03:16:03;8.80;99.90
19279;DHT22;9773;47.062;15.446;2024-02-23T03:18:29;8.80;99.90
19279;DHT22;9773;47.062;15.446;2024-02-23T03:20:55;8.80;99.90
19279;DHT22;9773;47.062;15.446;2024-02-23T03:23:21;8.80;99.90
19279;DHT22;9773;47.062;15.446;2024-02-23T03:25:47;8.80;99.90
19279;DHT22;9773;47.062;15.446;2024-02-23T03:28:13;8.80;99.90
19279;DHT22;9773;47.062;15.446;2024-02-23T03:30:39;8.80;99.90
19279;DHT22;9773;47.062;15.446;2024-02-23T03:33:04;8.80;99.90
19279;DHT22;9773;47.062;15.446;2024-02-23T03:35:30;8.80;99.90
19279;DHT22;9773;47.062;15.446;2024-02-23T03:37:56;8.80;99.90
19279;DHT22;9773;47.062;15.446;2024-02-23T03:40:22;8.80;99.90
19279;DHT22;9773;47.062;15.446;2024-02-23T03:43:03;8.80;99.90
19279;DHT22;9773;47.062;15.446;2024-02-23T03:45:29;8.80;99.90
19279;DHT22;9773;47.062;15.446;2024-02-23T03:47:55;8.80;99.90
19279;DHT22;9773;47.062;15.446;2024-02-23T03:50:20;8.80;99.90
19279;DHT22;9773;47.062;15.446;2024-02-23T03:52:46;8.80;99.90
19279;DHT22;9773;47.062;15.446;2024-02-23T03:55:12;8.80;99.90
19279;DHT22;9773;47.062;15.446;2024-02-23T03:57:38;8.80;99.90
19279;DHT22;9773;47.062;15.446;2024-02-23T04:00:06;8.80;99.90
19279;DHT22;9773;47.062;15.446;2024-02-23T04:02:33;8.80;99.90
19279;DHT22;9773;47.062;15.446;2024-02-23T04:04:59;8.70;99.90
19279;DHT22;9773;47.062;15.446;2024-02-23T04:07:25;8.70;99.90
19279;DHT22;9773;47.062;15.446;2024-02-23T04:09:51;8.80;99.90
19279;DHT22;9773;47.062;15.446;2024-02-23T04:12:23;8.80;99.90
19279;DHT22;9773;47.062;15.446;2024-02-23T04:14:50;8.80;99.90
19279;DHT22;9773;47.062;15.446;2024-02-23T04:17:15;8.80;99.90
19279;DHT22;9773;47.062;15.446;2024-02-23T04:19:42;8.90;99.90
19279;DHT22;9773;47.062;15.446;2024-02-23T04:22:09;8.80;99.90
19279;DHT22;9773;47.062;15.446;2024-02-23T04:24:38;8.80;99.90
19279;DHT22;9773;47.062;15.446;2024-02-23T04:27:05;8.80;99.90
19279;DHT22;9773;47.062;15.446;2024-02-23T04:29:32;8.80;99.90
19279;DHT22;9773;47.062;15.446;2024-02-23T04:32:00;8.80;99.90
19279;DHT22;9773;47.062;15.446;2024-02-23T04:34:25;8.80;99.90
19279;DHT22;9773;47.062;15.446;2024-02-23T04:36:51;8.80;99.90
19279;DHT22;9773;47.062;15.446;2024-02-23T04:39:17;8.80;99.90
19279;DHT22;9773;47.062;15.446;2024-02-23T04:41:43;8.80;99.90
19279;DHT22;9773;47.062;15.446;2024-02-23T04:44:09;8.70;99.90
19279;DHT22;9773;47.062;15.446;2024-02-23T04:46:34;8.80;99.90
19279;DHT22;9773;47.062;15.446;2024-02-23T04:49:01;8.80;99.90
19279;DHT22;9773;47.062;15.446;2024-02-23T04:51:27;8.80;99.90
19279;DHT22;9773;47.062;15.446;2024-02-23T04:53:53;8.80;99.90
19279;DHT22;9773;47.062;15.446;2024-02-23T04:56:20;8.80;99.90
19279;DHT22;9773;47.062;15.446;2024-02-23T04:58:46;8.80;99.90
19279;DHT22;9773;47.062;15.446;2024-02-23T05:01:12;8.70;99.90
19279;DHT22;9773;47.062;15.446;2024-02-23T05:03:38;8.70;99.90
19279;DHT22;9773;47.062;15.446;2024-02-23T05:06:05;8.80;99.90
19279;DHT22;9773;47.062;15.446;2024-02-23T05:08:31;8.80;99.90
19279;DHT22;9773;47.062;15.446;2024-02-23T05:10:57;8.80;99.90
19279;DHT22;9773;47.062;15.446;2024-02-23T05:13:23;8.70;99.90
19279;DHT22;9773;47.062;15.446;2024-02-23T05:15:49;8.70;99.90
19279;DHT22;9773;47.062;15.446;2024-02-23T05:18:15;8.70;99.90
19279;DHT22;9773;47.062;15.446;2024-02-23T05:20:41;8.50;99.90
19279;DHT22;9773;47.062;15.446;2024-02-23T05:23:07;8.60;99.90
19279;DHT22;9773;47.062;15.446;2024-02-23T05:25:33;8.50;99.90
19279;DHT22;9773;47.062;15.446;2024-02-23T05:27:59;8.40;99.90
19279;DHT22;9773;47.062;15.446;2024-02-23T05:30:25;8.40;99.90
19279;DHT22;9773;47.062;15.446;2024-02-23T05:32:52;8.40;99.90
19279;DHT22;9773;47.062;15.446;2024-02-23T05:35:18;8.40;99.90
19279;DHT22;9773;47.062;15.446;2024-02-23T05:37:45;8.40;99.90
19279;DHT22;9773;47.062;15.446;2024-02-23T05:40:12;8.40;99.90
19279;DHT22;9773;47.062;15.446;2024-02-23T05:42:38;8.40;99.90
19279;DHT22;9773;47.062;15.446;2024-02-23T05:45:06;8.30;99.90
19279;DHT22;9773;47.062;15.446;2024-02-23T05:47:37;8.30;99.90
19279;DHT22;9773;47.062;15.446;2024-02-23T05:50:04;8.20;99.90
19279;DHT22;9773;47.062;15.446;2024-02-23T05:52:33;8.10;99.90
19279;DHT22;9773;47.062;15.446;2024-02-23T05:55:00;8.10;99.90
19279;DHT22;9773;47.062;15.446;2024-02-23T05:57:29;8.10;99.90
19279;DHT22;9773;47.062;15.446;2024-02-23T05:59:55;8.10;99.90
19279;DHT22;9773;47.062;15.446;2024-02-23T06:02:23;8.00;99.90
19279;DHT22;9773;47.062;15.446;2024-02-23T06:04:49;8.10;99.90
19279;DHT22;9773;47.062;15.446;2024-02-23T06:07:15;8.00;99.90
19279;DHT22;9773;47.062;15.446;2024-02-23T06:09:44;7.90;99.90
19279;DHT22;9773;47.062;15.446;2024-02-23T06:12:10;7.90;99.90
19279;DHT22;9773;47.062;15.446;2024-02-23T06:14:36;7.90;99.90
19279;DHT22;9773;47.062;15.446;2024-02-23T06:17:02;8.00;99.90
19279;DHT22;9773;47.062;15.446;2024-02-23T06:19:28;8.00;99.90
19279;DHT22;9773;47.062;15.446;2024-02-23T06:21:54;7.90;99.90
19279;DHT22;9773;47.062;15.446;2024-02-23T06:24:20;7.90;99.90
19279;DHT22;9773;47.062;15.446;2024-02-23T06:26:46;7.90;99.90
19279;DHT22;9773;47.062;15.446;2024-02-23T06:29:14;7.90;99.90
19279;DHT22;9773;47.062;15.446;2024-02-23T06:31:40;7.90;99.90
19279;DHT22;9773;47.062;15.446;2024-02-23T06:34:07;8.00;99.90
19279;DHT22;9773;47.062;15.446;2024-02-23T06:36:33;7.80;99.90
19279;DHT22;9773;47.062;15.446;2024-02-23T06:38:59;7.80;99.90
19279;DHT22;9773;47.062;15.446;2024-02-23T06:41:25;7.80;99.90
19279;DHT22;9773;47.062;15.446;2024-02-23T06:43:52;7.80;99.90
19279;DHT22;9773;47.062;15.446;2024-02-23T06:46:19;7.70;99.90
19279;DHT22;9773;47.062;15.446;2024-02-23T06:48:45;7.80;99.90
19279;DHT22;9773;47.062;15.446;2024-02-23T06:51:12;7.90;99.90
19279;DHT22;9773;47.062;15.446;2024-02-23T06:53:37;8.00;99.90
19279;DHT22;9773;47.062;15.446;2024-02-23T06:56:03;8.00;99.90
19279;DHT22;9773;47.062;15.446;2024-02-23T06:58:29;8.10;99.90
19279;DHT22;9773;47.062;15.446;2024-02-23T07:00:55;8.00;99.90
19279;DHT22;9773;47.062;15.446;2024-02-23T07:03:21;8.00;99.90
19279;DHT22;9773;47.062;15.446;2024-02-23T07:05:46;8.00;99.90
19279;DHT22;9773;47.062;15.446;2024-02-23T07:08:13;8.00;99.90
19279;DHT22;9773;47.062;15.446;2024-02-23T07:10:39;8.00;99.90
19279;DHT22;9773;47.062;15.446;2024-02-23T07:13:05;8.00;99.90
19279;DHT22;9773;47.062;15.446;2024-02-23T07:15:32;8.00;99.90
19279;DHT22;9773;47.062;15.446;2024-02-23T07:17:59;8.00;99.90
19279;DHT22;9773;47.062;15.446;2024-02-23T07:20:25;8.10;99.90
19279;DHT22;9773;47.062;15.446;2024-02-23T07:22:51;8.20;99.90
19279;DHT22;9773;47.062;15.446;2024-02-23T07:25:19;8.20;99.90
19279;DHT22;9773;47.062;15.446;2024-02-23T07:27:46;8.20;99.90
19279;DHT22;9773;47.062;15.446;2024-02-23T07:30:16;8.20;99.90
19279;DHT22;9773;47.062;15.446;2024-02-23T07:32:43;8.20;99.90
19279;DHT22;9773;47.062;15.446;2024-02-23T07:35:10;8.20;99.90
19279;DHT22;9773;47.062;15.446;2024-02-23T07:37:39;8.20;99.90
19279;DHT22;9773;47.062;15.446;2024-02-23T07:40:06;8.20;99.90
19279;DHT22;9773;47.062;15.446;2024-02-23T07:42:32;8.30;99.90
19279;DHT22;9773;47.062;15.446;2024-02-23T07:44:58;8.30;99.90
19279;DHT22;9773;47.062;15.446;2024-02-23T07:47:24;8.20;99.90
19279;DHT22;9773;47.062;15.446;2024-02-23T07:49:52;8.20;99.90
19279;DHT22;9773;47.062;15.446;2024-02-23T07:52:19;8.30;99.90
19279;DHT22;9773;47.062;15.446;2024-02-23T07:54:45;8.40;99.90
19279;DHT22;9773;47.062;15.446;2024-02-23T07:57:10;8.40;99.90
19279;DHT22;9773;47.062;15.446;2024-02-23T07:59:36;8.40;99.90
19279;DHT22;9773;47.062;15.446;2024-02-23T08:02:02;8.40;99.90
19279;DHT22;9773;47.062;15.446;2024-02-23T08:04:28;8.50;99.90
19279;DHT22;9773;47.062;15.446;2024-02-23T08:06:54;8.50;99.90
19279;DHT22;9773;47.062;15.446;2024-02-23T08:09:19;8.50;99.90
19279;DHT22;9773;47.062;15.446;2024-02-23T08:11:47;8.50;99.90
19279;DHT22;9773;47.062;15.446;2024-02-23T08:14:14;8.50;99.90
19279;DHT22;9773;47.062;15.446;2024-02-23T08:16:40;8.60;99.90
19279;DHT22;9773;47.062;15.446;2024-02-23T08:19:09;8.70;99.90
19279;DHT22;9773;47.062;15.446;2024-02-23T08:21:35;8.80;99.90
19279;DHT22;9773;47.062;15.446;2024-02-23T08:24:03;8.90;99.90
19279;DHT22;9773;47.062;15.446;2024-02-23T08:26:29;8.90;99.90
19279;DHT22;9773;47.062;15.446;2024-02-23T08:28:54;8.90;99.90
19279;DHT22;9773;47.062;15.446;2024-02-23T08:31:20;9.00;99.90
19279;DHT22;9773;47.062;15.446;2024-02-23T08:33:47;9.00;99.90
19279;DHT22;9773;47.062;15.446;2024-02-23T08:36:13;9.10;99.90
19279;DHT22;9773;47.062;15.446;2024-02-23T08:38:39;9.10;99.90
19279;DHT22;9773;47.062;15.446;2024-02-23T08:41:04;9.10;99.90
19279;DHT22;9773;47.062;15.446;2024-02-23T08:43:30;9.20;99.90
19279;DHT22;9773;47.062;15.446;2024-02-23T08:45:56;9.20;99.90
19279;DHT22;9773;47.062;15.446;2024-02-23T08:48:22;9.20;99.90
19279;DHT22;9773;47.062;15.446;2024-02-23T08:50:47;9.20;99.90
19279;DHT22;9773;47.062;15.446;2024-02-23T08:53:13;9.30;99.90
19279;DHT22;9773;47.062;15.446;2024-02-23T08:55:39;9.20;99.90
19279;DHT22;9773;47.062;15.446;2024-02-23T08:58:05;9.20;99.90
19279;DHT22;9773;47.062;15.446;2024-02-23T09:00:32;9.30;99.90
19279;DHT22;9773;47.062;15.446;2024-02-23T09:02:58;9.40;99.90
19279;DHT22;9773;47.062;15.446;2024-02-23T09:05:24;9.40;99.90
19279;DHT22;9773;47.062;15.446;2024-02-23T09:07:50;9.40;99.90
19279;DHT22;9773;47.062;15.446;2024-02-23T09:10:15;9.40;99.90
19279;DHT22;9773;47.062;15.446;2024-02-23T09:12:41;9.50;99.90
19279;DHT22;9773;47.062;15.446;2024-02-23T09:15:07;9.50;99.90
19279;DHT22;9773;47.062;15.446;2024-02-23T09:17:33;9.50;99.90
19279;DHT22;9773;47.062;15.446;2024-02-23T09:19:59;9.50;99.90
19279;DHT22;9773;47.062;15.446;2024-02-23T09:22:25;9.50;99.90
19279;DHT22;9773;47.062;15.446;2024-02-23T09:24:51;9.50;99.90
19279;DHT22;9773;47.062;15.446;2024-02-23T09:27:20;9.40;99.90
19279;DHT22;9773;47.062;15.446;2024-02-23T09:29:46;9.40;99.90
19279;DHT22;9773;47.062;15.446;2024-02-23T09:32:12;9.40;99.90
19279;DHT22;9773;47.062;15.446;2024-02-23T09:34:38;9.40;99.90
19279;DHT22;9773;47.062;15.446;2024-02-23T09:37:04;9.40;99.90
19279;DHT22;9773;47.062;15.446;2024-02-23T09:39:29;9.40;99.90
19279;DHT22;9773;47.062;15.446;2024-02-23T09:41:56;9.40;99.90
19279;DHT22;9773;47.062;15.446;2024-02-23T09:44:28;9.40;99.90
19279;DHT22;9773;47.062;15.446;2024-02-23T09:47:00;9.40;99.90
19279;DHT22;9773;47.062;15.446;2024-02-23T09:49:27;9.50;99.90
19279;DHT22;9773;47.062;15.446;2024-02-23T09:51:55;9.40;99.90
19279;DHT22;9773;47.062;15.446;2024-02-23T09:54:20;9.40;99.90
19279;DHT22;9773;47.062;15.446;2024-02-23T09:56:46;9.40;99.90
19279;DHT22;9773;47.062;15.446;2024-02-23T09:59:13;9.40;99.90
19279;DHT22;9773;47.062;15.446;2024-02-23T10:01:39;9.50;99.90
19279;DHT22;9773;47.062;15.446;2024-02-23T10:04:06;9.50;99.90
19279;DHT22;9773;47.062;15.446;2024-02-23T10:06:32;9.60;99.90
19279;DHT22;9773;47.062;15.446;2024-02-23T10:08:57;9.60;99.90
19279;DHT22;9773;47.062;15.446;2024-02-23T10:11:24;9.60;99.90
19279;DHT22;9773;47.062;15.446;2024-02-23T10:13:51;9.60;99.90
19279;DHT22;9773;47.062;15.446;2024-02-23T10:16:23;9.60;99.90
19279;DHT22;9773;47.062;15.446;2024-02-23T10:18:49;9.70;99.90
19279;DHT22;9773;47.062;15.446;2024-02-23T10:21:16;9.60;99.90
19279;DHT22;9773;47.062;15.446;2024-02-23T10:23:43;9.50;99.90
19279;DHT22;9773;47.062;15.446;2024-02-23T10:26:09;9.40;99.90
19279;DHT22;9773;47.062;15.446;2024-02-23T10:28:37;9.40;99.90
19279;DHT22;9773;47.062;15.446;2024-02-23T10:31:05;9.40;99.90
19279;DHT22;9773;47.062;15.446;2024-02-23T10:33:31;9.40;99.90
19279;DHT22;9773;47.062;15.446;2024-02-23T10:35:58;9.40;99.90
19279;DHT22;9773;47.062;15.446;2024-02-23T10:38:32;9.40;99.90
19279;DHT22;9773;47.062;15.446;2024-02-23T10:40:58;9.40;99.90
19279;DHT22;9773;47.062;15.446;2024-02-23T10:43:46;9.40;99.90
19279;DHT22;9773;47.062;15.446;2024-02-23T10:46:13;9.40;99.90
19279;DHT22;9773;47.062;15.446;2024-02-23T10:48:41;9.50;99.90
19279;DHT22;9773;47.062;15.446;2024-02-23T10:51:07;9.50;99.90
19279;DHT22;9773;47.062;15.446;2024-02-23T10:53:34;9.40;99.90
19279;DHT22;9773;47.062;15.446;2024-02-23T10:56:00;9.50;99.90
19279;DHT22;9773;47.062;15.446;2024-02-23T10:58:27;9.50;99.90
19279;DHT22;9773;47.062;15.446;2024-02-23T11:01:01;9.60;99.90
19279;DHT22;9773;47.062;15.446;2024-02-23T11:03:31;9.60;99.90
19279;DHT22;9773;47.062;15.446;2024-02-23T11:05:59;9.60;99.90
19279;DHT22;9773;47.062;15.446;2024-02-23T11:08:29;9.60;99.90
19279;DHT22;9773;47.062;15.446;2024-02-23T11:10:55;9.60;99.90
19279;DHT22;9773;47.062;15.446;2024-02-23T11:13:50;9.60;99.90
19279;DHT22;9773;47.062;15.446;2024-02-23T11:16:22;9.70;99.90
19279;DHT22;9773;47.062;15.446;2024-02-23T11:19:05;9.70;99.90
19279;DHT22;9773;47.062;15.446;2024-02-23T11:21:37;9.70;99.90
19279;DHT22;9773;47.062;15.446;2024-02-23T11:24:06;9.70;99.90
19279;DHT22;9773;47.062;15.446;2024-02-23T11:26:32;9.80;99.90
19279;DHT22;9773;47.062;15.446;2024-02-23T11:29:10;9.80;99.90
19279;DHT22;9773;47.062;15.446;2024-02-23T11:31:36;9.80;99.90
19279;DHT22;9773;47.062;15.446;2024-02-23T11:34:09;9.80;99.90
19279;DHT22;9773;47.062;15.446;2024-02-23T11:36:35;9.90;99.90
19279;DHT22;9773;47.062;15.446;2024-02-23T11:39:02;9.90;99.90
19279;DHT22;9773;47.062;15.446;2024-02-23T11:41:32;10.00;99.90
19279;DHT22;9773;47.062;15.446;2024-02-23T11:43:57;10.00;99.90
19279;DHT22;9773;47.062;15.446;2024-02-23T11:46:26;10.00;99.90
19279;DHT22;9773;47.062;15.446;2024-02-23T11:48:52;10.10;99.90
19279;DHT22;9773;47.062;15.446;2024-02-23T11:51:22;10.20;99.90
19279;DHT22;9773;47.062;15.446;2024-02-23T11:53:52;10.30;99.90
19279;DHT22;9773;47.062;15.446;2024-02-23T11:56:19;10.40;99.90
19279;DHT22;9773;47.062;15.446;2024-02-23T11:58:46;10.50;99.90
19279;DHT22;9773;47.062;15.446;2024-02-23T12:01:12;10.60;99.90
19279;DHT22;9773;47.062;15.446;2024-02-23T12:03:38;10.60;99.90
19279;DHT22;9773;47.062;15.446;2024-02-23T12:06:05;10.70;99.90
19279;DHT22;9773;47.062;15.446;2024-02-23T12:08:33;10.70;99.90
19279;DHT22;9773;47.062;15.446;2024-02-23T12:11:04;10.70;99.90
19279;DHT22;9773;47.062;15.446;2024-02-23T12:13:30;10.70;99.90
19279;DHT22;9773;47.062;15.446;2024-02-23T12:15:57;10.60;99.90
19279;DHT22;9773;47.062;15.446;2024-02-23T12:18:23;10.60;99.90
19279;DHT22;9773;47.062;15.446;2024-02-23T12:20:53;10.60;99.90
19279;DHT22;9773;47.062;15.446;2024-02-23T12:23:19;10.60;99.90
19279;DHT22;9773;47.062;15.446;2024-02-23T12:25:56;10.60;99.90
19279;DHT22;9773;47.062;15.446;2024-02-23T12:28:22;10.70;99.90
19279;DHT22;9773;47.062;15.446;2024-02-23T12:31:05;10.60;99.90
19279;DHT22;9773;47.062;15.446;2024-02-23T12:33:37;10.50;99.90
19279;DHT22;9773;47.062;15.446;2024-02-23T12:36:06;10.50;99.90
19279;DHT22;9773;47.062;15.446;2024-02-23T12:38:32;10.50;99.90
19279;DHT22;9773;47.062;15.446;2024-02-23T12:40:58;10.50;99.90
19279;DHT22;9773;47.062;15.446;2024-02-23T12:43:24;10.50;99.90
19279;DHT22;9773;47.062;15.446;2024-02-23T12:45:52;10.60;99.90
19279;DHT22;9773;47.062;15.446;2024-02-23T12:48:18;10.60;99.90
19279;DHT22;9773;47.062;15.446;2024-02-23T12:50:44;10.60;99.90
19279;DHT22;9773;47.062;15.446;2024-02-23T12:53:37;10.60;99.90
19279;DHT22;9773;47.062;15.446;2024-02-23T12:56:05;10.60;99.90
19279;DHT22;9773;47.062;15.446;2024-02-23T12:58:31;10.60;99.90
19279;DHT22;9773;47.062;15.446;2024-02-23T13:00:57;10.50;99.90
19279;DHT22;9773;47.062;15.446;2024-02-23T13:03:25;10.60;99.90
19279;DHT22;9773;47.062;15.446;2024-02-23T13:05:55;10.50;99.90
19279;DHT22;9773;47.062;15.446;2024-02-23T13:08:22;10.60;99.90
19279;DHT22;9773;47.062;15.446;2024-02-23T13:10:52;10.60;99.90
19279;DHT22;9773;47.062;15.446;2024-02-23T13:13:19;10.60;99.90
19279;DHT22;9773;47.062;15.446;2024-02-23T13:15:50;10.60;99.90
19279;DHT22;9773;47.062;15.446;2024-02-23T13:18:16;10.60;99.90
19279;DHT22;9773;47.062;15.446;2024-02-23T13:20:42;10.50;99.90
19279;DHT22;9773;47.062;15.446;2024-02-23T13:23:11;10.50;99.90
19279;DHT22;9773;47.062;15.446;2024-02-23T13:25:38;10.40;99.90
19279;DHT22;9773;47.062;15.446;2024-02-23T13:28:05;10.40;99.90
19279;DHT22;9773;47.062;15.446;2024-02-23T13:30:32;10.40;99.90
19279;DHT22;9773;47.062;15.446;2024-02-23T13:32:58;10.30;99.90
19279;DHT22;9773;47.062;15.446;2024-02-23T13:35:23;10.30;99.90
19279;DHT22;9773;47.062;15.446;2024-02-23T13:37:50;10.40;99.90
19279;DHT22;9773;47.062;15.446;2024-02-23T13:40:16;10.30;99.90
19279;DHT22;9773;47.062;15.446;2024-02-23T13:42:42;10.40;99.90
19279;DHT22;9773;47.062;15.446;2024-02-23T13:45:11;10.30;99.90
19279;DHT22;9773;47.062;15.446;2024-02-23T13:47:40;10.30;99.90
19279;DHT22;9773;47.062;15.446;2024-02-23T13:50:07;10.20;99.90
19279;DHT22;9773;47.062;15.446;2024-02-23T13:52:33;10.20;99.90
19279;DHT22;9773;47.062;15.446;2024-02-23T13:54:59;10.20;99.90
19279;DHT22;9773;47.062;15.446;2024-02-23T13:57:26;10.30;99.90
19279;DHT22;9773;47.062;15.446;2024-02-23T13:59:51;10.30;99.90
19279;DHT22;9773;47.062;15.446;2024-02-23T14:02:25;10.30;99.90
19279;DHT22;9773;47.062;15.446;2024-02-23T14:04:52;10.30;99.90
19279;DHT22;9773;47.062;15.446;2024-02-23T14:07:17;10.30;99.90
19279;DHT22;9773;47.062;15.446;2024-02-23T14:09:43;10.30;99.90
19279;DHT22;9773;47.062;15.446;2024-02-23T14:12:09;10.30;99.90
19279;DHT22;9773;47.062;15.446;2024-02-23T14:14:35;10.40;99.90
19279;DHT22;9773;47.062;15.446;2024-02-23T14:17:00;10.30;99.90
19279;DHT22;9773;47.062;15.446;2024-02-23T14:19:26;10.30;99.90
19279;DHT22;9773;47.062;15.446;2024-02-23T14:21:52;10.30;99.90
19279;DHT22;9773;47.062;15.446;2024-02-23T14:24:18;10.30;99.90
19279;DHT22;9773;47.062;15.446;2024-02-23T14:26:44;10.20;99.90
19279;DHT22;9773;47.062;15.446;2024-02-23T14:29:10;10.30;99.90
19279;DHT22;9773;47.062;15.446;2024-02-23T14:31:36;10.20;99.90
19279;DHT22;9773;47.062;15.446;2024-02-23T14:34:01;10.20;99.90
19279;DHT22;9773;47.062;15.446;2024-02-23T14:36:27;10.30;99.90
19279;DHT22;9773;47.062;15.446;2024-02-23T14:38:54;10.30;99.90
19279;DHT22;9773;47.062;15.446;2024-02-23T14:41:20;10.30;99.90
19279;DHT22;9773;47.062;15.446;2024-02-23T14:43:46;10.30;99.90
19279;DHT22;9773;47.062;15.446;2024-02-23T14:46:11;10.20;99.90
19279;DHT22;9773;47.062;15.446;2024-02-23T14:48:37;10.10;99.90
19279;DHT22;9773;47.062;15.446;2024-02-23T14:51:03;10.00;99.90
19279;DHT22;9773;47.062;15.446;2024-02-23T14:53:30;9.90;99.90
19279;DHT22;9773;47.062;15.446;2024-02-23T14:55:56;9.90;99.90
19279;DHT22;9773;47.062;15.446;2024-02-23T14:58:22;9.90;99.90
19279;DHT22;9773;47.062;15.446;2024-02-23T15:00:48;9.90;99.90
19279;DHT22;9773;47.062;15.446;2024-02-23T15:03:14;9.80;99.90
19279;DHT22;9773;47.062;15.446;2024-02-23T15:05:40;9.90;99.90
19279;DHT22;9773;47.062;15.446;2024-02-23T15:08:07;9.80;99.90
19279;DHT22;9773;47.062;15.446;2024-02-23T15:10:33;9.80;99.90
19279;DHT22;9773;47.062;15.446;2024-02-23T15:12:59;9.80;99.90
19279;DHT22;9773;47.062;15.446;2024-02-23T15:15:25;9.80;99.90
19279;DHT22;9773;47.062;15.446;2024-02-23T15:17:51;9.80;99.90
19279;DHT22;9773;47.062;15.446;2024-02-23T15:20:18;9.80;99.90
19279;DHT22;9773;47.062;15.446;2024-02-23T15:22:45;9.70;99.90
19279;DHT22;9773;47.062;15.446;2024-02-23T15:25:12;9.70;99.90
19279;DHT22;9773;47.062;15.446;2024-02-23T15:27:38;9.60;99.90
19279;DHT22;9773;47.062;15.446;2024-02-23T15:30:07;9.60;99.90
19279;DHT22;9773;47.062;15.446;2024-02-23T15:32:34;9.70;99.90
19279;DHT22;9773;47.062;15.446;2024-02-23T15:35:01;9.60;99.90
19279;DHT22;9773;47.062;15.446;2024-02-23T15:37:28;9.70;99.90
19279;DHT22;9773;47.062;15.446;2024-02-23T15:39:54;9.60;99.90